Time;durP1;ratioP1;P1;durP2;ratioP2;P2;SDS_P1;SDS_P2;PMS_P1;PMS_P2;Temp;Humidity;BMP_temperature;BMP_pressure;BME280_temperature;BME280_humidity;BME280_pressure;Samples;Min_cycle;Max_cycle;Signal;HPM_P1;HPM_P2
2021/03/18 00:00:59;;;;;;;11.93;7.55;;;22.70;42.20;;;;;;5057658;28;20120;-59
2021/03/18 00:03:28;;;;;;;11.25;6.90;;;22.70;42.20;;;;;;5075658;28;20033;-60
2021/03/18 00:05:55;;;;;;;12.75;7.35;;;22.70;42.20;;;;;;5075281;28;20120;-59
2021/03/18 00:08:22;;;;;;;11.95;6.90;;;22.60;42.20;;;;;;5056621;28;20795;-59
2021/03/18 00:10:49;;;;;;;9.75;6.25;;;22.60;42.30;;;;;;5056862;28;20398;-59
2021/03/18 00:13:16;;;;;;;8.60;6.05;;;22.60;42.30;;;;;;5057027;28;20553;-60
2021/03/18 00:15:43;;;;;;;11.15;6.32;;;22.60;42.30;;;;;;5075341;28;20031;-60
2021/03/18 00:18:10;;;;;;;9.75;6.10;;;22.60;42.90;;;;;;5075492;28;20027;-60
2021/03/18 00:20:36;;;;;;;9.77;5.43;;;22.60;42.30;;;;;;5057585;28;20398;-60
2021/03/18 00:23:03;;;;;;;9.98;5.63;;;22.60;42.30;;;;;;5057496;28;20107;-61
2021/03/18 00:25:29;;;;;;;10.43;5.70;;;22.60;42.30;;;;;;5090937;28;20028;-61
2021/03/18 00:27:55;;;;;;;9.18;5.57;;;22.60;42.20;;;;;;5075045;28;20099;-61
2021/03/18 00:30:23;;;;;;;10.32;5.63;;;22.50;42.20;;;;;;5074393;28;20078;-61
2021/03/18 00:32:51;;;;;;;14.70;5.88;;;22.60;42.30;;;;;;5075619;28;20028;-60
2021/03/18 00:35:18;;;;;;;9.95;6.00;;;22.50;42.20;;;;;;5107725;28;20055;-60
2021/03/18 00:37:45;;;;;;;9.05;5.30;;;22.50;42.20;;;;;;5107708;28;20043;-59
2021/03/18 00:40:17;;;;;;;9.52;5.05;;;22.50;42.20;;;;;;5075062;28;20028;-60
2021/03/18 00:43:05;;;;;;;8.73;5.45;;;22.50;42.20;;;;;;5107712;28;20036;-62
2021/03/18 00:45:34;;;;;;;7.05;4.97;;;22.50;42.20;;;;;;5107776;28;20386;-59
2021/03/18 00:48:02;;;;;;;7.68;5.50;;;22.50;42.20;;;;;;5107735;28;20071;-59
2021/03/18 00:50:34;;;;;;;9.50;5.03;;;22.50;42.20;;;;;;5072865;28;20021;-59
2021/03/18 00:53:01;;;;;;;12.18;5.72;;;22.50;42.20;;;;;;5073304;28;20034;-59
2021/03/18 00:55:27;;;;;;;9.70;5.22;;;22.40;42.20;;;;;;5074923;28;20024;-60
2021/03/18 00:57:54;;;;;;;8.30;4.90;;;22.40;42.20;;;;;;5056719;28;20398;-60
2021/03/18 01:00:33;;;;;;;9.20;4.97;;;22.40;42.20;;;;;;5056545;28;20020;-60
2021/03/18 01:02:59;;;;;;;8.52;4.45;;;22.40;42.20;;;;;;5056520;28;20077;-59
2021/03/18 01:05:25;;;;;;;12.05;4.85;;;22.40;42.20;;;;;;5056696;28;20123;-60
2021/03/18 01:07:51;;;;;;;7.95;4.63;;;22.40;42.20;;;;;;5056773;28;20123;-60
2021/03/18 01:10:17;;;;;;;10.00;5.18;;;22.40;42.20;;;;;;5074364;28;20143;-61
2021/03/18 01:12:44;;;;;;;8.30;4.55;;;22.40;42.20;;;;;;5074515;28;20055;-61
2021/03/18 01:15:12;;;;;;;8.32;4.38;;;22.40;42.20;;;;;;5074249;28;20032;-61
2021/03/18 01:17:38;;;;;;;8.30;4.20;;;22.40;42.30;;;;;;5074463;28;20048;-61
2021/03/18 01:20:05;;;;;;;6.43;3.95;;;22.40;42.20;;;;;;5074693;28;20028;-60
2021/03/18 01:22:31;;;;;;;9.35;4.43;;;22.40;42.20;;;;;;5056133;28;20496;-61
2021/03/18 01:24:57;;;;;;;8.95;3.90;;;22.40;42.20;;;;;;5055570;28;20150;-60
2021/03/18 01:27:23;;;;;;;7.30;3.78;;;22.30;42.10;;;;;;5056132;28;20064;-61
2021/03/18 01:29:51;;;;;;;8.45;4.07;;;22.30;42.20;;;;;;5056167;28;20029;-60
2021/03/18 01:32:17;;;;;;;7.90;3.97;;;22.30;42.10;;;;;;5073870;28;20028;-60
2021/03/18 01:34:44;;;;;;;9.82;4.10;;;22.30;42.10;;;;;;5056028;28;20021;-60
2021/03/18 01:37:10;;;;;;;6.88;3.70;;;22.30;42.10;;;;;;5073836;28;20032;-60
2021/03/18 01:39:36;;;;;;;10.35;4.35;;;22.30;42.10;;;;;;5074040;28;20029;-60
2021/03/18 01:42:02;;;;;;;6.90;3.78;;;22.20;42.00;;;;;;5055977;28;20130;-59
2021/03/18 01:44:28;;;;;;;6.15;3.50;;;22.20;42.10;;;;;;5073638;28;20043;-60
2021/03/18 01:46:55;;;;;;;7.03;3.38;;;22.20;42.10;;;;;;5073640;28;20036;-60
2021/03/18 01:49:21;;;;;;;5.00;3.47;;;22.20;42.00;;;;;;5075427;28;20079;-60
2021/03/18 01:51:47;;;;;;;6.22;3.00;;;22.20;42.00;;;;;;5073492;28;20414;-60
2021/03/18 01:54:15;;;;;;;7.88;3.20;;;22.20;42.00;;;;;;5073621;28;20371;-60
2021/03/18 01:56:41;;;;;;;5.88;2.88;;;22.20;42.00;;;;;;5073538;28;20366;-60
2021/03/18 01:59:07;;;;;;;7.35;2.92;;;22.20;41.90;;;;;;5073599;28;20028;-60
2021/03/18 02:01:33;;;;;;;9.13;3.40;;;22.20;42.00;;;;;;5073428;28;20039;-60
2021/03/18 02:03:59;;;;;;;7.72;3.38;;;22.10;41.80;;;;;;5073016;28;20352;-60
2021/03/18 02:06:26;;;;;;;3.83;2.60;;;22.10;41.80;;;;;;5049851;28;20407;-60
2021/03/18 02:08:52;;;;;;;4.95;2.83;;;22.10;41.80;;;;;;5052196;28;20029;-60
2021/03/18 02:11:18;;;;;;;5.95;2.47;;;22.10;41.80;;;;;;5035047;28;20125;-61
2021/03/18 02:13:44;;;;;;;5.97;2.88;;;22.10;41.80;;;;;;5053402;28;20115;-58
2021/03/18 02:16:12;;;;;;;5.47;2.45;;;22.10;41.90;;;;;;5053319;28;20379;-59
2021/03/18 02:18:53;;;;;;;7.45;2.60;;;22.00;41.80;;;;;;5053115;28;20049;-59
2021/03/18 02:21:28;;;;;;;4.28;2.70;;;22.00;41.70;;;;;;5053204;28;20171;-59
2021/03/18 02:24:18;;;;;;;6.25;2.60;;;22.00;41.70;;;;;;5018747;28;20025;-58
2021/03/18 02:26:53;;;;;;;6.50;3.28;;;22.00;41.70;;;;;;5053209;28;20064;-59
2021/03/18 02:29:44;;;;;;;6.35;2.70;;;22.00;41.70;;;;;;5053107;28;20100;-59
2021/03/18 02:32:22;;;;;;;9.27;3.05;;;21.90;41.60;;;;;;5068622;28;20032;-59
2021/03/18 02:35:15;;;;;;;5.22;2.45;;;21.90;41.60;;;;;;5054830;28;20143;-59
2021/03/18 02:37:45;;;;;;;8.27;3.35;;;21.90;41.60;;;;;;5063870;28;20025;-59
2021/03/18 02:40:17;;;;;;;4.93;2.65;;;21.90;41.60;;;;;;5079692;28;20060;-59
2021/03/18 02:42:48;;;;;;;8.63;2.85;;;21.90;41.60;;;;;;5078383;28;20044;-60
2021/03/18 02:45:16;;;;;;;5.88;2.35;;;21.90;41.60;;;;;;5078697;28;20032;-59
2021/03/18 02:47:43;;;;;;;5.63;2.05;;;21.90;41.60;;;;;;5078177;28;20035;-59
2021/03/18 02:50:11;;;;;;;5.07;2.67;;;21.80;41.60;;;;;;5078179;28;20028;-60
2021/03/18 02:52:40;;;;;;;7.10;2.45;;;21.80;41.50;;;;;;5078197;28;20032;-60
2021/03/18 02:55:07;;;;;;;5.57;2.20;;;21.80;41.60;;;;;;5078208;28;20024;-59
2021/03/18 02:57:36;;;;;;;5.05;2.83;;;21.80;41.60;;;;;;5060593;28;20020;-59
2021/03/18 03:00:06;;;;;;;7.40;2.35;;;21.70;41.60;;;;;;5079881;28;20046;-60
2021/03/18 03:02:32;;;;;;;5.40;2.10;;;21.70;41.60;;;;;;5079674;28;20051;-60
2021/03/18 03:04:59;;;;;;;6.28;2.53;;;21.70;41.60;;;;;;5079679;28;20028;-60
2021/03/18 03:07:26;;;;;;;5.80;2.25;;;21.70;41.50;;;;;;5079617;28;20040;-60
2021/03/18 03:09:55;;;;;;;5.18;2.40;;;21.70;41.50;;;;;;5062138;28;20032;-60
2021/03/18 03:12:25;;;;;;;4.03;2.20;;;21.70;41.50;;;;;;5079612;28;20111;-61
2021/03/18 03:14:53;;;;;;;6.60;2.40;;;21.70;41.50;;;;;;5079463;28;20024;-59
2021/03/18 03:17:22;;;;;;;5.80;2.40;;;21.70;41.50;;;;;;5079596;28;20028;-60
2021/03/18 03:19:49;;;;;;;5.38;1.98;;;21.70;41.60;;;;;;5061693;28;20043;-60
2021/03/18 03:22:16;;;;;;;4.28;2.08;;;21.70;41.60;;;;;;5061614;28;20031;-60
2021/03/18 03:24:45;;;;;;;5.60;2.30;;;21.60;41.50;;;;;;5079341;28;20516;-60
2021/03/18 03:27:13;;;;;;;5.70;2.35;;;21.60;41.50;;;;;;5079481;28;20470;-60
2021/03/18 03:29:43;;;;;;;4.05;2.50;;;21.70;41.60;;;;;;5079245;28;20032;-59
2021/03/18 03:32:10;;;;;;;;;;;21.60;41.50;;;;;;5079855;28;20089;-60
2021/03/18 03:34:38;;;;;;;6.47;2.63;;;21.60;41.70;;;;;;5061263;28;20281;-61
2021/03/18 03:37:05;;;;;;;7.50;2.92;;;21.70;41.50;;;;;;5079310;28;20412;-60
2021/03/18 03:39:32;;;;;;;5.63;2.53;;;21.60;41.40;;;;;;5079290;28;20052;-59
2021/03/18 03:41:59;;;;;;;5.03;2.47;;;21.60;41.40;;;;;;5079364;28;20360;-59
2021/03/18 03:44:25;;;;;;;5.20;2.50;;;21.60;41.60;;;;;;5079266;28;20378;-59
2021/03/18 03:46:51;;;;;;;3.92;2.40;;;21.60;41.60;;;;;;5075287;28;20066;-59
2021/03/18 03:49:17;;;;;;;6.68;2.78;;;21.60;41.60;;;;;;5075876;28;20387;-59
2021/03/18 03:52:07;;;;;;;4.78;2.65;;;21.60;41.60;;;;;;5075671;28;20040;-59
2021/03/18 03:54:44;;;;;;;4.15;2.35;;;21.50;41.60;;;;;;5075941;28;20025;-60
2021/03/18 03:57:50;;;;;;;7.28;2.42;;;21.50;41.50;;;;;;5091727;28;20029;-60
2021/03/18 04:00:17;;;;;;;4.63;2.58;;;21.60;41.50;;;;;;5072815;28;20375;-59
2021/03/18 04:02:46;;;;;;;4.88;2.00;;;21.50;41.50;;;;;;5075804;28;20031;-60
2021/03/18 04:05:14;;;;;;;7.85;2.45;;;21.50;41.50;;;;;;5075668;28;20028;-60
2021/03/18 04:07:42;;;;;;;5.93;2.70;;;21.60;41.50;;;;;;5074721;28;20100;-60
2021/03/18 04:10:11;;;;;;;4.80;3.30;;;21.60;41.50;;;;;;5090262;28;20078;-60
2021/03/18 04:12:40;;;;;;;5.53;2.78;;;21.50;41.50;;;;;;5056277;28;20025;-60
2021/03/18 04:15:11;;;;;;;7.97;3.28;;;21.50;41.50;;;;;;5072194;28;20036;-60
2021/03/18 04:17:40;;;;;;;4.43;2.75;;;21.50;41.40;;;;;;5067782;28;20382;-60
2021/03/18 04:20:10;;;;;;;3.88;2.50;;;21.50;41.50;;;;;;5056040;28;20025;-59
2021/03/18 04:22:39;;;;;;;7.10;3.70;;;21.50;41.50;;;;;;5045462;28;20077;-60
2021/03/18 04:25:07;;;;;;;5.80;4.13;;;21.50;41.50;;;;;;5055654;28;20032;-60
2021/03/18 04:27:35;;;;;;;8.75;3.35;;;21.50;41.50;;;;;;5072254;28;20033;-60
2021/03/18 04:30:04;;;;;;;6.43;3.22;;;21.50;41.60;;;;;;5073799;28;20029;-60
2021/03/18 04:32:31;;;;;;;5.60;3.42;;;21.50;41.60;;;;;;5073497;28;20058;-60
2021/03/18 04:34:58;;;;;;;6.60;3.72;;;21.50;41.60;;;;;;5072698;28;20111;-60
2021/03/18 04:37:25;;;;;;;7.00;4.22;;;21.50;41.60;;;;;;5073554;28;20524;-59
2021/03/18 04:39:52;;;;;;;6.35;3.60;;;21.50;41.60;;;;;;5055401;28;20040;-59
2021/03/18 04:42:19;;;;;;;8.10;4.50;;;21.50;41.50;;;;;;5055343;28;20111;-59
2021/03/18 04:44:47;;;;;;;8.68;3.60;;;21.50;41.50;;;;;;5053392;28;20047;-58
2021/03/18 04:47:18;;;;;;;9.85;4.47;;;21.50;41.50;;;;;;5053074;28;20049;-59
2021/03/18 04:49:45;;;;;;;10.75;4.28;;;21.40;41.40;;;;;;5071128;28;20967;-59
2021/03/18 04:52:14;;;;;;;6.95;4.18;;;21.50;41.40;;;;;;5094034;28;20081;-60
2021/03/18 04:54:40;;;;;;;9.02;4.72;;;21.40;41.30;;;;;;5093707;28;20024;-60
2021/03/18 04:57:07;;;;;;;7.57;4.22;;;21.40;41.40;;;;;;5094002;28;20500;-60
2021/03/18 04:59:36;;;;;;;8.50;3.92;;;21.40;41.30;;;;;;5074896;28;20035;-60
2021/03/18 05:02:04;;;;;;;9.13;3.92;;;21.40;41.30;;;;;;5092732;28;20538;-58
2021/03/18 05:04:32;;;;;;;7.80;3.42;;;21.40;41.30;;;;;;5093517;28;20034;-58
2021/03/18 05:06:58;;;;;;;5.85;3.25;;;21.40;41.20;;;;;;5093880;28;20119;-59
2021/03/18 05:09:25;;;;;;;5.78;2.78;;;21.40;41.20;;;;;;5093088;28;20035;-59
2021/03/18 05:11:53;;;;;;;7.00;3.20;;;21.30;41.10;;;;;;5093441;28;20035;-59
2021/03/18 05:14:20;;;;;;;6.05;3.13;;;21.30;41.10;;;;;;5075207;28;20016;-59
2021/03/18 05:16:48;;;;;;;7.25;3.05;;;21.30;41.10;;;;;;5093301;28;20115;-59
2021/03/18 05:19:14;;;;;;;4.85;2.78;;;21.30;41.10;;;;;;5092769;28;20028;-59
2021/03/18 05:21:44;;;;;;;6.88;3.08;;;21.30;41.10;;;;;;5092881;28;20039;-59
2021/03/18 05:24:11;;;;;;;6.55;2.88;;;21.30;41.00;;;;;;5092778;28;20474;-59
2021/03/18 05:26:38;;;;;;;12.02;7.78;;;21.30;41.00;;;;;;5093307;28;20412;-59
2021/03/18 05:29:05;;;;;;;10.43;8.88;;;21.30;41.00;;;;;;5092721;28;20024;-60
2021/03/18 05:31:32;;;;;;;23.08;16.35;;;21.30;41.00;;;;;;5073723;28;20052;-60
2021/03/18 05:33:59;;;;;;;18.38;13.35;;;21.30;41.00;;;;;;5091108;28;20021;-59
2021/03/18 05:36:25;;;;;;;42.70;34.35;;;21.20;41.10;;;;;;5074471;28;20389;-59
2021/03/18 05:38:51;;;;;;;30.00;25.48;;;21.20;41.00;;;;;;5086572;28;20028;-59
2021/03/18 05:41:20;;;;;;;34.75;30.70;;;21.20;41.10;;;;;;5054942;28;20120;-60
2021/03/18 05:43:46;;;;;;;38.50;30.25;;;21.20;41.10;;;;;;5087794;28;20042;-59
2021/03/18 05:46:14;;;;;;;41.78;35.75;;;21.20;41.20;;;;;;5092936;28;20024;-58
2021/03/18 05:48:42;;;;;;;41.25;35.38;;;21.20;41.10;;;;;;5073744;28;20044;-59
2021/03/18 05:51:13;;;;;;;36.80;32.63;;;21.20;41.20;;;;;;5092065;28;20123;-60
2021/03/18 05:53:41;;;;;;;44.20;34.60;;;21.20;41.20;;;;;;5087321;28;20024;-60
2021/03/18 05:56:10;;;;;;;48.97;42.20;;;21.20;41.20;;;;;;5079613;28;20454;-57
2021/03/18 05:58:36;;;;;;;65.63;58.13;;;21.20;41.20;;;;;;5074496;28;20073;-59
2021/03/18 06:01:02;;;;;;;77.72;67.18;;;21.20;41.20;;;;;;5077300;28;20126;-59
2021/03/18 06:03:28;;;;;;;74.32;66.25;;;21.20;41.30;;;;;;5092448;28;20028;-59
2021/03/18 06:05:55;;;;;;;77.90;69.47;;;21.20;41.30;;;;;;5092701;28;20051;-60
2021/03/18 06:08:20;;;;;;;82.10;72.88;;;21.20;41.30;;;;;;5091842;28;20107;-59
2021/03/18 06:10:47;;;;;;;84.80;75.47;;;21.20;41.90;;;;;;5073517;28;20367;-59
2021/03/18 06:13:13;;;;;;;78.50;69.80;;;21.20;41.40;;;;;;5091395;28;20059;-61
2021/03/18 06:15:39;;;;;;;81.00;72.43;;;21.20;41.40;;;;;;5072649;28;20028;-59
2021/03/18 06:18:06;;;;;;;79.22;70.55;;;21.20;41.40;;;;;;5094198;28;20035;-59
2021/03/18 06:20:32;;;;;;;85.90;76.68;;;21.10;41.40;;;;;;5106961;28;20034;-59
2021/03/18 06:23:07;;;;;;;79.07;70.50;;;21.20;41.50;;;;;;5082412;28;20118;-59
2021/03/18 06:25:37;;;;;;;76.80;68.35;;;21.20;41.50;;;;;;5093925;28;20028;-59
2021/03/18 06:28:23;;;;;;;72.13;64.47;;;21.20;41.50;;;;;;5073729;28;20077;-59
2021/03/18 06:31:12;;;;;;;130.27;116.13;;;21.20;41.40;;;;;;5073346;28;20028;-59
2021/03/18 06:33:40;;;;;;;84.80;75.80;;;21.10;41.40;;;;;;5074269;28;20047;-59
2021/03/18 06:36:18;;;;;;;94.45;80.57;;;21.20;41.50;;;;;;5092081;28;20023;-60
2021/03/18 06:39:00;;;;;;;90.72;80.82;;;21.20;41.40;;;;;;5074648;28;20032;-59
2021/03/18 06:41:47;;;;;;;87.78;78.35;;;21.20;41.40;;;;;;5094310;28;20038;-59
2021/03/18 06:44:21;;;;;;;79.47;70.78;;;21.20;42.10;;;;;;5101563;28;20028;-60
2021/03/18 06:46:49;;;;;;;80.35;71.55;;;21.20;41.50;;;;;;5073919;28;20024;-60
2021/03/18 06:49:17;;;;;;;75.22;66.80;;;21.20;41.40;;;;;;5077611;28;20051;-59
2021/03/18 06:51:44;;;;;;;77.50;69.30;;;21.20;41.50;;;;;;5072128;28;20432;-58
2021/03/18 06:54:18;;;;;;;73.53;63.85;;;21.20;41.50;;;;;;5049646;28;20111;-59
2021/03/18 06:56:56;;;;;;;71.00;63.47;;;21.10;41.50;;;;;;5071938;28;20028;-59
2021/03/18 06:59:37;;;;;;;65.85;58.75;;;21.20;41.60;;;;;;5068137;28;20103;-59
2021/03/18 07:02:13;;;;;;;61.17;54.25;;;21.20;41.50;;;;;;5081006;28;20025;-58
2021/03/18 07:04:53;;;;;;;59.13;52.85;;;21.20;41.50;;;;;;5055475;28;20033;-59
2021/03/18 07:07:22;;;;;;;58.95;52.53;;;21.20;41.50;;;;;;5060285;28;20539;-59
2021/03/18 07:09:50;;;;;;;59.55;52.33;;;21.20;41.60;;;;;;5070983;28;20060;-59
2021/03/18 07:12:24;;;;;;;60.22;53.13;;;21.20;42.10;;;;;;5052874;28;20486;-58
2021/03/18 07:14:52;;;;;;;61.95;54.72;;;21.20;41.30;;;;;;5060694;28;20024;-59
2021/03/18 07:17:30;;;;;;;112.28;100.20;;;21.30;41.90;;;;;;5073376;28;20033;-59
2021/03/18 07:20:19;;;;;;;106.95;95.20;;;21.30;41.10;;;;;;5079475;28;20028;-59
2021/03/18 07:22:56;;;;;;;100.68;89.82;;;21.30;40.90;;;;;;5086365;28;20139;-59
2021/03/18 07:25:27;;;;;;;96.30;85.93;;;21.30;41.00;;;;;;5095351;28;20118;-66
2021/03/18 07:27:59;;;;;;;100.20;89.03;;;21.30;41.60;;;;;;5090001;28;20534;-65
2021/03/18 07:30:34;;;;;;;93.15;82.90;;;21.40;41.10;;;;;;5064952;28;20452;-65
2021/03/18 07:33:00;;;;;;;82.57;73.25;;;21.40;41.10;;;;;;5058181;28;20156;-65
2021/03/18 07:35:28;;;;;;;80.72;72.13;;;21.40;41.10;;;;;;5075509;28;20474;-65
2021/03/18 07:37:55;;;;;;;65.93;58.75;;;21.50;41.20;;;;;;5057865;28;20043;-65
2021/03/18 07:40:23;;;;;;;67.22;59.97;;;21.50;41.10;;;;;;5057788;28;20036;-64
2021/03/18 07:42:50;;;;;;;61.25;53.80;;;21.60;41.10;;;;;;5057657;28;20043;-65
2021/03/18 07:45:19;;;;;;;56.45;48.70;;;21.60;41.20;;;;;;5083581;28;20032;-66
2021/03/18 07:47:46;;;;;;;53.30;47.20;;;21.60;41.10;;;;;;5064277;28;20422;-64
2021/03/18 07:50:14;;;;;;;55.72;49.63;;;21.60;41.00;;;;;;5067168;28;20039;-65
2021/03/18 07:52:44;;;;;;;50.35;42.78;;;21.70;41.00;;;;;;5085978;28;20024;-66
2021/03/18 07:55:15;;;;;;;49.67;43.07;;;21.70;40.90;;;;;;5067216;28;20536;-66
2021/03/18 07:57:44;;;;;;;52.72;46.65;;;21.80;40.90;;;;;;5066432;28;20391;-65
2021/03/18 08:00:11;;;;;;;56.28;50.08;;;21.80;40.80;;;;;;5059237;28;20043;-65
2021/03/18 08:02:38;;;;;;;62.60;53.88;;;21.80;40.80;;;;;;5051841;28;20029;-66
2021/03/18 08:05:05;;;;;;;63.60;56.40;;;21.80;40.70;;;;;;5055473;28;20035;-66
2021/03/18 08:07:48;;;;;;;67.32;58.33;;;21.90;40.80;;;;;;5054777;28;20468;-65
2021/03/18 08:10:39;;;;;;;59.85;53.35;;;21.90;40.70;;;;;;5055047;28;20029;-65
2021/03/18 08:13:05;;;;;;;51.40;44.28;;;22.00;40.60;;;;;;5044576;28;20913;-56
2021/03/18 08:15:44;;;;;;;42.75;36.90;;;22.00;40.40;;;;;;5074858;28;20166;-57
2021/03/18 08:18:14;;;;;;;38.00;31.30;;;22.00;40.20;;;;;;5074631;28;20032;-54
2021/03/18 08:20:42;;;;;;;37.90;28.30;;;22.00;39.60;;;;;;5074864;28;20039;-53
2021/03/18 08:26:01;;;;;;;23.85;19.05;;;22.10;38.90;;;;;;5073622;28;20039;-54
2021/03/18 08:28:54;;;;;;;47.63;39.83;;;22.10;38.50;;;;;;5076540;28;20028;-56
2021/03/18 08:31:32;;;;;;;54.08;42.78;;;22.10;38.70;;;;;;5074143;28;20063;-57
2021/03/18 08:34:01;;;;;;;41.45;24.85;;;22.10;38.30;;;;;;5055296;28;20024;-58
2021/03/18 08:36:37;;;;;;;43.90;32.28;;;22.10;38.30;;;;;;5074029;28;20462;-58
2021/03/18 08:39:12;;;;;;;47.40;36.75;;;22.10;37.90;;;;;;5073880;28;20059;-58
2021/03/18 08:41:45;;;;;;;52.85;40.47;;;22.20;38.10;;;;;;5074012;28;20039;-58
2021/03/18 08:44:15;;;;;;;34.00;24.05;;;22.20;38.10;;;;;;5055530;28;20094;-58
2021/03/18 08:46:48;;;;;;;32.45;20.52;;;22.20;37.90;;;;;;5055819;28;20039;-58
2021/03/18 08:49:18;;;;;;;42.97;32.28;;;22.20;37.80;;;;;;5073501;28;20473;-59
2021/03/18 08:51:49;;;;;;;60.53;47.92;;;22.20;37.90;;;;;;5055350;28;20056;-59
2021/03/18 08:54:40;;;;;;;55.15;42.42;;;22.20;38.10;;;;;;5073501;28;20028;-59
2021/03/18 08:57:33;;;;;;;46.63;35.88;;;22.20;38.10;;;;;;5055388;28;20029;-58
2021/03/18 09:00:14;;;;;;;48.45;36.45;;;22.30;38.20;;;;;;5070819;28;20028;-59
2021/03/18 09:02:40;;;;;;;;;;;22.30;37.90;;;;;;5073767;28;20033;-58
2021/03/18 09:05:12;;;;;;;40.33;32.90;;;22.30;38.50;;;;;;5071093;28;19904;-58
2021/03/18 09:07:39;;;;;;;35.75;29.10;;;22.50;38.30;;;;;;5055990;28;20033;-58
2021/03/18 09:10:11;;;;;;;34.05;28.77;;;22.50;37.50;;;;;;5053043;28;20060;-59
2021/03/18 09:12:43;;;;;;;31.27;22.45;;;22.50;37.20;;;;;;5043877;28;20427;-58
2021/03/18 09:15:13;;;;;;;29.02;18.63;;;22.50;37.30;;;;;;5072802;28;20485;-59
2021/03/18 09:17:39;;;;;;;17.13;13.38;;;22.60;37.40;;;;;;5038100;28;20115;-60
2021/03/18 09:20:06;;;;;;;19.58;10.07;;;22.60;37.30;;;;;;5072872;28;20036;-59
2021/03/18 09:22:32;;;;;;;20.50;16.73;;;22.60;37.10;;;;;;5072537;28;20163;-59
2021/03/18 09:24:58;;;;;;;24.45;19.35;;;22.70;37.00;;;;;;5072266;28;20032;-58
2021/03/18 09:27:24;;;;;;;185.45;153.77;;;22.70;37.00;;;;;;5072378;28;20105;-59
2021/03/18 09:29:50;;;;;;;152.55;135.80;;;22.70;36.70;;;;;;5072664;28;20028;-58
2021/03/18 09:32:16;;;;;;;97.43;84.20;;;22.70;37.20;;;;;;5072023;28;20041;-60
2021/03/18 09:34:45;;;;;;;73.65;61.40;;;22.80;36.50;;;;;;5072398;28;20054;-59
2021/03/18 09:37:12;;;;;;;64.05;50.22;;;22.80;36.10;;;;;;5056312;28;20025;-58
2021/03/18 09:39:48;;;;;;;47.63;37.75;;;22.90;36.20;;;;;;5052647;28;20025;-56
2021/03/18 09:42:18;;;;;;;49.10;40.53;;;23.00;36.10;;;;;;5052375;28;20025;-55
2021/03/18 09:44:44;;;;;;;48.03;38.85;;;23.00;36.00;;;;;;5051953;28;20040;-56
2021/03/18 09:47:10;;;;;;;57.78;47.35;;;23.10;36.10;;;;;;5052355;28;20139;-56
2021/03/18 09:49:39;;;;;;;48.58;38.58;;;23.20;36.10;;;;;;5051809;28;20040;-55
2021/03/18 09:52:16;;;;;;;47.22;37.38;;;23.20;35.90;;;;;;5072518;28;20044;-56
2021/03/18 09:54:42;;;;;;;35.42;30.15;;;23.30;35.80;;;;;;5054912;28;20481;-56
2021/03/18 09:57:10;;;;;;;41.60;35.00;;;23.40;36.00;;;;;;5054677;28;20098;-56
2021/03/18 09:59:38;;;;;;;34.83;30.00;;;23.50;36.00;;;;;;5072986;28;20075;-56
2021/03/18 10:02:06;;;;;;;38.20;30.83;;;23.50;35.90;;;;;;5072281;28;20028;-55
2021/03/18 10:04:39;;;;;;;28.95;24.90;;;23.60;35.90;;;;;;5054900;28;20101;-54
2021/03/18 10:07:05;;;;;;;28.38;22.92;;;23.70;35.70;;;;;;5087948;28;20060;-55
2021/03/18 10:09:33;;;;;;;26.75;22.48;;;23.80;36.00;;;;;;5072520;28;20031;-57
2021/03/18 10:12:02;;;;;;;35.03;26.23;;;23.90;36.00;;;;;;5072516;28;20111;-57
2021/03/18 10:14:36;;;;;;;26.50;22.10;;;24.10;36.00;;;;;;5072325;28;20049;-58
2021/03/18 10:17:10;;;;;;;27.23;20.67;;;24.30;35.80;;;;;;5054448;28;20113;-56
2021/03/18 10:19:48;;;;;;;21.15;18.52;;;24.50;35.70;;;;;;5072596;28;20021;-57
2021/03/18 10:22:15;;;;;;;21.27;15.00;;;24.80;35.40;;;;;;5071918;28;20796;-57
2021/03/18 10:24:41;;;;;;;22.30;17.13;;;25.10;35.10;;;;;;5053833;28;20837;-56
2021/03/18 10:27:15;;;;;;;21.95;18.08;;;25.30;34.90;;;;;;5071963;28;20031;-57
2021/03/18 10:29:43;;;;;;;23.48;17.55;;;25.50;34.50;;;;;;5072122;28;20025;-57
2021/03/18 10:32:12;;;;;;;15.68;13.82;;;25.60;34.60;;;;;;5072181;28;20137;-58
2021/03/18 10:34:39;;;;;;;10.98;7.38;;;25.80;35.00;;;;;;5072263;28;20024;-58
2021/03/18 10:37:24;;;;;;;10.20;4.95;;;26.00;34.10;;;;;;5077113;28;20077;-59
2021/03/18 10:40:06;;;;;;;10.60;5.53;;;26.10;34.20;;;;;;5074264;28;20047;-57
2021/03/18 10:42:32;;;;;;;34.45;28.20;;;26.20;34.00;;;;;;5074756;28;20040;-57
2021/03/18 10:45:19;;;;;;;64.93;54.13;;;26.30;34.00;;;;;;5081726;28;20024;-56
2021/03/18 10:47:46;;;;;;;51.88;42.90;;;26.40;33.80;;;;;;5070468;28;20029;-55
2021/03/18 10:50:15;;;;;;;51.97;41.88;;;26.50;33.80;;;;;;5052270;28;20041;-59
2021/03/18 10:52:50;;;;;;;98.43;87.78;;;26.60;33.70;;;;;;5054439;28;20094;-61
2021/03/18 10:55:23;;;;;;;55.42;46.72;;;26.60;33.90;;;;;;5088222;28;20386;-61
2021/03/18 10:57:54;;;;;;;44.03;37.40;;;26.60;33.80;;;;;;5076818;28;20035;-62
2021/03/18 11:00:21;;;;;;;32.38;28.90;;;26.70;34.00;;;;;;5092342;28;20059;-61
2021/03/18 11:03:16;;;;;;;49.92;38.70;;;26.70;34.20;;;;;;5076520;28;20025;-63
2021/03/18 11:05:48;;;;;;;18.50;12.15;;;26.80;34.00;;;;;;5075814;28;20044;-60
2021/03/18 11:08:15;;;;;;;21.80;15.68;;;26.90;33.70;;;;;;5091784;28;20059;-59
2021/03/18 11:10:46;;;;;;;23.17;13.60;;;26.90;33.80;;;;;;5076242;28;20540;-61
2021/03/18 11:13:17;;;;;;;15.88;6.88;;;27.10;33.70;;;;;;5091779;28;20027;-60
2021/03/18 11:15:46;;;;;;;158.77;141.60;;;27.30;33.60;;;;;;5069898;28;20025;-61
2021/03/18 11:18:13;;;;;;;63.00;50.40;;;27.40;33.30;;;;;;5055880;28;20502;-60
2021/03/18 11:20:41;;;;;;;48.13;32.28;;;27.60;33.20;;;;;;5056278;28;20026;-61
2021/03/18 11:23:08;;;;;;;24.00;11.05;;;27.90;33.00;;;;;;5055682;28;20033;-62
2021/03/18 11:25:34;;;;;;;25.98;5.90;;;28.10;33.40;;;;;;5064986;28;20020;-61
2021/03/18 11:28:00;;;;;;;26.50;6.85;;;28.50;32.80;;;;;;5073777;28;20028;-63
2021/03/18 11:30:30;;;;;;;11.02;2.20;;;28.80;32.90;;;;;;5074831;28;20374;-63
2021/03/18 11:33:14;;;;;;;6.90;2.13;;;29.10;32.30;;;;;;5075841;28;20456;-64
2021/03/18 11:35:43;;;;;;;9.52;1.77;;;29.50;32.30;;;;;;5075153;28;20075;-62
2021/03/18 11:38:09;;;;;;;8.55;1.85;;;30.00;31.80;;;;;;5070216;28;20049;-62
2021/03/18 11:40:36;;;;;;;11.90;2.58;;;30.30;31.50;;;;;;5054661;28;20032;-62
2021/03/18 11:43:03;;;;;;;11.02;1.85;;;30.70;31.00;;;;;;5054749;28;20104;-61
2021/03/18 11:45:29;;;;;;;10.20;2.28;;;31.10;30.80;;;;;;5036662;28;20064;-61
2021/03/18 11:47:56;;;;;;;4.32;1.60;;;31.50;30.20;;;;;;5054322;28;20391;-62
2021/03/18 11:50:24;;;;;;;4.65;1.50;;;32.00;30.10;;;;;;5036815;28;20037;-62
2021/03/18 11:52:50;;;;;;;4.53;1.67;;;32.40;29.30;;;;;;5036702;28;20052;-62
2021/03/18 11:55:16;;;;;;;30.70;27.73;;;32.90;29.50;;;;;;5054564;28;20029;-61
2021/03/18 11:57:42;;;;;;;38.03;33.95;;;33.20;29.20;;;;;;5056398;28;20017;-61
2021/03/18 12:00:10;;;;;;;8.27;7.22;;;33.60;29.10;;;;;;5039017;28;20021;-61
2021/03/18 12:02:38;;;;;;;6.38;2.30;;;34.10;28.90;;;;;;5088980;28;20394;-61
2021/03/18 12:05:06;;;;;;;4.90;1.55;;;34.40;28.70;;;;;;5073571;28;20040;-61
2021/03/18 12:07:32;;;;;;;4.70;1.63;;;34.70;28.20;;;;;;5038196;28;20025;-61
2021/03/18 12:09:58;;;;;;;5.82;1.88;;;35.00;28.30;;;;;;5073291;28;20028;-61
2021/03/18 12:12:25;;;;;;;7.95;2.50;;;35.30;28.00;;;;;;5073182;28;20028;-61
2021/03/18 12:14:51;;;;;;;4.82;1.85;;;35.60;27.80;;;;;;5054818;28;20028;-61
2021/03/18 12:17:17;;;;;;;6.25;2.10;;;35.90;27.80;;;;;;5072689;28;20403;-62
2021/03/18 12:19:43;;;;;;;4.22;1.63;;;36.10;27.70;;;;;;5055006;28;20043;-61
2021/03/18 12:22:09;;;;;;;3.72;1.73;;;36.40;27.30;;;;;;5073388;28;20479;-62
2021/03/18 12:24:35;;;;;;;88.50;80.95;;;36.60;27.10;;;;;;5055440;28;20043;-61
2021/03/18 12:27:01;;;;;;;38.13;34.85;;;36.80;27.10;;;;;;5040019;28;20101;-62
2021/03/18 12:29:26;;;;;;;9.20;7.72;;;37.00;26.80;;;;;;5055999;28;20063;-63
2021/03/18 12:31:53;;;;;;;6.72;4.72;;;36.90;26.90;;;;;;5055893;28;20033;-64
2021/03/18 12:34:19;;;;;;;9.15;7.15;;;36.60;26.60;;;;;;5089842;28;20493;-62
2021/03/18 12:36:45;;;;;;;7.95;4.40;;;36.20;26.80;;;;;;5074095;28;20474;-64
2021/03/18 12:39:11;;;;;;;8.95;5.70;;;35.70;26.90;;;;;;5090003;28;20070;-61
2021/03/18 12:41:37;;;;;;;7.63;4.43;;;35.20;27.10;;;;;;5074000;28;20032;-61
2021/03/18 12:44:04;;;;;;;6.85;4.20;;;34.70;27.40;;;;;;5089218;28;20462;-62
2021/03/18 12:46:30;;;;;;;9.20;4.53;;;34.10;27.70;;;;;;5055934;28;20028;-63
2021/03/18 12:48:56;;;;;;;20.38;13.30;;;33.60;28.00;;;;;;5059664;28;20097;-63
2021/03/18 12:51:23;;;;;;;10.85;7.88;;;33.10;28.30;;;;;;5081201;28;20037;-63
2021/03/18 12:53:50;;;;;;;6.75;4.10;;;32.70;28.90;;;;;;5061155;28;20362;-64